createdAt,value
2022-11-08T00:01:48.217Z,100.00
2022-11-08T00:04:49.656Z,100.00
2022-11-08T00:08:09.750Z,100.00
2022-11-08T00:11:29.464Z,100.00
2022-11-08T00:14:30.863Z,100.00
2022-11-08T00:17:32.532Z,100.00
2022-11-08T00:20:34.404Z,100.00
2022-11-08T00:23:35.803Z,100.00
2022-11-08T00:26:37.196Z,100.00
2022-11-08T00:29:38.673Z,100.00
2022-11-08T00:32:40.054Z,100.00
2022-11-08T00:35:41.515Z,100.00
2022-11-08T00:38:44.023Z,100.00
2022-11-08T00:41:45.770Z,100.00
2022-11-08T00:44:47.221Z,100.00
2022-11-08T00:47:48.610Z,100.00
2022-11-08T00:50:50.052Z,100.00
2022-11-08T00:53:51.432Z,100.00
2022-11-08T00:56:52.831Z,100.00
2022-11-08T00:59:54.239Z,100.00
2022-11-08T01:03:14.259Z,100.00
2022-11-08T01:06:18.824Z,100.00
2022-11-08T01:09:20.279Z,100.00
2022-11-08T01:12:21.659Z,100.00
2022-11-08T01:15:23.208Z,100.00
2022-11-08T01:18:25.058Z,100.00
2022-11-08T01:21:27.304Z,100.00
2022-11-08T01:24:28.679Z,100.00
2022-11-08T01:27:30.075Z,100.00
2022-11-08T01:30:31.564Z,100.00
2022-11-08T01:33:33.597Z,100.00
2022-11-08T01:36:35.021Z,100.00
2022-11-08T01:39:36.419Z,100.00
2022-11-08T01:42:37.922Z,100.00
2022-11-08T01:46:29.592Z,100.00
2022-11-08T01:49:41.809Z,100.00
2022-11-08T01:52:47.340Z,100.00
2022-11-08T01:55:48.928Z,100.00
2022-11-08T01:58:52.594Z,100.00
2022-11-08T02:01:54.286Z,100.00
2022-11-08T02:04:55.944Z,100.00
2022-11-08T02:08:14.732Z,100.00
2022-11-08T02:11:18.204Z,100.00
2022-11-08T02:14:19.778Z,100.00
2022-11-08T02:17:21.160Z,100.00
2022-11-08T02:20:22.800Z,100.00
2022-11-08T02:23:30.286Z,100.00
2022-11-08T02:26:33.614Z,100.00
2022-11-08T02:29:36.281Z,100.00
2022-11-08T02:32:39.340Z,100.00
2022-11-08T02:35:41.323Z,100.00
2022-11-08T02:38:47.975Z,100.00
2022-11-08T02:41:49.387Z,100.00
2022-11-08T02:44:51.235Z,100.00
2022-11-08T02:47:52.627Z,100.00
2022-11-08T02:50:54.058Z,100.00
2022-11-08T02:53:55.482Z,100.00
2022-11-08T02:56:56.857Z,100.00
2022-11-08T02:59:58.239Z,100.00
2022-11-08T03:02:59.856Z,100.00
2022-11-08T03:06:01.260Z,100.00
2022-11-08T03:09:03.385Z,100.00
2022-11-08T03:12:04.936Z,100.00
2022-11-08T03:15:08.182Z,100.00
2022-11-08T03:18:09.600Z,100.00
2022-11-08T03:21:11.025Z,100.00
2022-11-08T03:24:12.632Z,100.00
2022-11-08T03:27:15.201Z,100.00
2022-11-08T03:30:16.705Z,100.00
2022-11-08T03:33:18.141Z,100.00
2022-11-08T03:36:19.617Z,100.00
2022-11-08T03:39:21.025Z,100.00
2022-11-08T03:42:22.459Z,100.00
2022-11-08T03:45:23.909Z,100.00
2022-11-08T03:48:25.423Z,100.00
2022-11-08T03:51:26.959Z,100.00
2022-11-08T03:54:28.359Z,100.00
2022-11-08T03:57:29.771Z,100.00
2022-11-08T04:00:31.172Z,100.00
2022-11-08T04:03:32.657Z,100.00
2022-11-08T04:06:34.376Z,100.00
2022-11-08T04:09:35.757Z,100.00
2022-11-08T04:13:00.085Z,100.00
2022-11-08T04:16:01.508Z,100.00
2022-11-08T04:19:21.735Z,100.00
2022-11-08T04:22:23.343Z,100.00
2022-11-08T04:25:24.760Z,100.00
2022-11-08T04:28:27.948Z,100.00
2022-11-08T04:31:29.440Z,100.00
2022-11-08T04:34:30.821Z,100.00
2022-11-08T04:37:32.211Z,100.00
2022-11-08T04:40:33.611Z,100.00
2022-11-08T04:43:35.058Z,100.00
2022-11-08T04:46:36.476Z,100.00
2022-11-08T04:49:37.897Z,100.00
2022-11-08T04:52:40.988Z,100.00
2022-11-08T04:55:42.367Z,100.00
2022-11-08T04:58:46.313Z,100.00
2022-11-08T05:01:47.895Z,100.00
2022-11-08T05:04:49.405Z,100.00
2022-11-08T05:07:50.888Z,100.00
2022-11-08T05:10:52.309Z,100.00
2022-11-08T05:13:54.080Z,100.00
2022-11-08T05:16:55.571Z,100.00
2022-11-08T05:20:15.314Z,100.00
2022-11-08T05:23:25.469Z,100.00
2022-11-08T05:26:28.241Z,100.00
2022-11-08T05:29:29.660Z,100.00
2022-11-08T05:32:31.068Z,100.00
2022-11-08T05:35:36.174Z,100.00
2022-11-08T05:38:38.364Z,100.00
2022-11-08T05:41:39.761Z,100.00
2022-11-08T05:44:41.160Z,100.00
2022-11-08T05:47:45.888Z,100.00
2022-11-08T05:50:48.372Z,100.00
2022-11-08T05:53:49.828Z,100.00
2022-11-08T05:56:51.239Z,100.00
2022-11-08T05:59:52.669Z,100.00
2022-11-08T06:02:54.160Z,100.00
2022-11-08T06:05:55.955Z,100.00
2022-11-08T06:08:57.376Z,100.00
2022-11-08T06:11:58.776Z,100.00
2022-11-08T06:15:00.392Z,100.00
2022-11-08T06:18:03.729Z,100.00
2022-11-08T06:21:07.482Z,100.00
2022-11-08T06:24:08.880Z,100.00
2022-11-08T06:27:10.269Z,100.00
2022-11-08T06:30:12.249Z,100.00
2022-11-08T06:33:13.871Z,100.00
2022-11-08T06:36:15.267Z,100.00
2022-11-08T06:39:16.865Z,100.00
2022-11-08T06:42:18.401Z,100.00
2022-11-08T06:45:20.450Z,100.00
2022-11-08T06:48:21.896Z,100.00
2022-11-08T06:51:23.441Z,100.00
2022-11-08T06:54:26.843Z,100.00
2022-11-08T06:57:28.641Z,100.00
2022-11-08T07:00:30.578Z,100.00
2022-11-08T07:03:33.253Z,100.00
2022-11-08T07:06:35.787Z,100.00
2022-11-08T07:09:37.276Z,100.00
2022-11-08T07:12:38.712Z,100.00
2022-11-08T07:15:41.112Z,100.00
2022-11-08T07:18:42.650Z,100.00
2022-11-08T07:21:44.084Z,100.00
2022-11-08T07:24:45.455Z,100.00
2022-11-08T07:27:46.870Z,100.00
2022-11-08T07:30:48.891Z,100.00
2022-11-08T07:33:50.791Z,100.00
2022-11-08T07:36:52.176Z,100.00
2022-11-08T07:39:53.696Z,100.00
2022-11-08T07:43:22.791Z,100.00
2022-11-08T07:46:22.564Z,99.17
2022-11-08T07:49:23.962Z,98.73
2022-11-08T07:52:25.481Z,98.88
2022-11-08T07:55:27.424Z,97.98
2022-11-08T07:58:28.811Z,98.00
2022-11-08T08:01:30.339Z,96.76
2022-11-08T08:04:32.070Z,97.72
2022-11-08T08:07:35.621Z,97.60
2022-11-08T08:10:37.353Z,97.66
2022-11-08T08:13:38.777Z,97.83
2022-11-08T08:16:40.486Z,98.48
2022-11-08T08:19:41.875Z,98.80
2022-11-08T08:22:47.665Z,98.36
2022-11-08T08:25:49.106Z,97.94
2022-11-08T08:28:50.575Z,97.46
2022-11-08T08:31:52.070Z,97.62
2022-11-08T08:34:53.447Z,97.40
2022-11-08T08:37:58.533Z,97.26
2022-11-08T08:41:01.022Z,96.57
2022-11-08T08:44:02.490Z,96.28
2022-11-08T08:47:03.890Z,96.10
2022-11-08T08:50:05.774Z,96.09
2022-11-08T08:53:07.347Z,95.92
2022-11-08T08:56:09.092Z,95.58
2022-11-08T09:02:32.000Z,95.00
2022-11-08T09:05:34.697Z,93.59
2022-11-08T09:08:36.313Z,91.88
2022-11-08T09:11:37.697Z,89.69
2022-11-08T09:14:39.101Z,87.75
2022-11-08T09:17:40.477Z,84.76
2022-11-08T09:20:43.739Z,83.54
2022-11-08T09:23:45.163Z,82.08
2022-11-08T09:26:46.689Z,80.30
2022-11-08T09:29:48.205Z,79.70
2022-11-08T09:33:02.175Z,78.39
2022-11-08T09:36:05.510Z,77.91
2022-11-08T09:39:06.925Z,77.20
2022-11-08T09:42:27.183Z,77.50
2022-11-08T09:45:37.598Z,78.26
2022-11-08T09:48:42.630Z,78.93
2022-11-08T09:51:44.283Z,80.11
2022-11-08T09:54:47.331Z,80.26
2022-11-08T09:58:01.257Z,80.21
2022-11-08T10:01:03.727Z,80.11
2022-11-08T10:04:08.814Z,79.74
2022-11-08T10:07:32.117Z,78.09
2022-11-08T10:10:57.100Z,77.66
2022-11-08T10:14:18.004Z,77.91
2022-11-08T10:17:47.358Z,77.65
2022-11-08T10:20:59.496Z,74.73
2022-11-08T10:24:14.578Z,74.05
2022-11-08T10:27:33.606Z,73.51
2022-11-08T10:30:41.273Z,74.04
2022-11-08T10:33:47.327Z,73.83
2022-11-08T10:36:54.559Z,74.67
2022-11-08T10:40:12.135Z,73.68
2022-11-08T10:43:24.722Z,73.89
2022-11-08T10:46:36.957Z,74.88
2022-11-08T10:49:47.464Z,73.52
2022-11-08T10:52:58.031Z,73.22
2022-11-08T10:56:01.659Z,73.46
2022-11-08T10:59:03.105Z,73.34
2022-11-08T11:02:19.006Z,72.09
2022-11-08T11:05:28.692Z,71.05
2022-11-08T11:08:30.860Z,70.93
2022-11-08T11:11:32.177Z,71.30
2022-11-08T11:14:33.576Z,72.23
2022-11-08T11:17:38.841Z,70.64
2022-11-08T11:20:41.731Z,72.08
2022-11-08T11:23:56.067Z,70.85
2022-11-08T11:26:57.365Z,72.00
2022-11-08T11:30:25.543Z,69.69
2022-11-08T11:33:29.896Z,67.98
2022-11-08T11:36:31.674Z,68.03
2022-11-08T11:39:44.174Z,67.72
2022-11-08T11:42:56.614Z,67.74
2022-11-08T11:46:15.213Z,68.99
2022-11-08T11:49:21.537Z,68.21
2022-11-08T11:52:23.020Z,69.65
2022-11-08T11:55:47.788Z,68.79
2022-11-08T11:59:04.341Z,66.66
2022-11-08T12:02:09.228Z,62.32
2022-11-08T12:05:29.888Z,58.35
2022-11-08T12:08:43.301Z,58.06
2022-11-08T12:12:06.739Z,58.01
2022-11-08T12:15:14.120Z,57.75
2022-11-08T12:19:00.720Z,59.98
2022-11-08T12:22:20.494Z,59.21
2022-11-08T12:25:33.838Z,61.08
2022-11-08T12:29:03.085Z,60.58
2022-11-08T12:32:20.915Z,61.04
2022-11-08T12:36:07.613Z,60.78
2022-11-08T12:39:23.535Z,61.49
2022-11-08T12:42:43.538Z,62.74
2022-11-08T12:46:12.895Z,62.50
2022-11-08T12:49:26.585Z,63.16
2022-11-08T12:52:46.780Z,61.97
2022-11-08T12:55:49.730Z,62.48
2022-11-08T12:58:53.511Z,64.13
2022-11-08T13:01:56.719Z,62.78
2022-11-08T13:05:19.963Z,63.06
2022-11-08T13:08:46.562Z,66.09
2022-11-08T13:12:00.341Z,68.50
2022-11-08T13:15:03.329Z,70.44
2022-11-08T13:18:07.577Z,71.93
2022-11-08T13:21:27.812Z,73.23
2022-11-08T13:24:48.794Z,74.39
2022-11-08T13:27:50.256Z,74.23
2022-11-08T13:31:08.235Z,74.61
2022-11-08T13:34:21.813Z,75.34
2022-11-08T13:37:45.049Z,75.83
2022-11-08T13:41:16.846Z,75.64
2022-11-08T13:44:54.925Z,75.44
2022-11-08T13:48:22.461Z,75.49
2022-11-08T13:51:27.266Z,76.28
2022-11-08T13:54:31.030Z,76.56
2022-11-08T13:57:57.432Z,77.68
2022-11-08T14:01:00.010Z,77.56
2022-11-08T14:04:01.532Z,76.91
2022-11-08T14:07:27.346Z,76.97
2022-11-08T14:11:21.818Z,76.39
2022-11-08T14:14:38.311Z,76.79
2022-11-08T14:17:49.743Z,75.97
2022-11-08T14:20:52.422Z,76.43
2022-11-08T14:23:54.211Z,76.01
2022-11-08T14:26:55.832Z,76.62
2022-11-08T14:30:01.161Z,76.21
2022-11-08T14:33:23.236Z,76.10
2022-11-08T14:36:27.701Z,76.09
2022-11-08T14:39:34.394Z,74.98
2022-11-08T14:42:35.920Z,75.65
2022-11-08T14:45:38.945Z,76.51
2022-11-08T14:48:50.076Z,77.01
2022-11-08T14:52:15.500Z,77.28
2022-11-08T14:55:23.717Z,78.06
2022-11-08T14:58:27.558Z,79.53
2022-11-08T15:01:29.630Z,79.36
2022-11-08T15:04:32.731Z,80.35
2022-11-08T15:07:34.182Z,80.19
2022-11-08T15:10:35.750Z,80.51
2022-11-08T15:13:43.424Z,79.94
2022-11-08T15:16:51.175Z,81.46
2022-11-08T15:20:03.571Z,81.46
2022-11-08T15:23:47.876Z,81.34
2022-11-08T15:27:12.033Z,83.18
2022-11-08T15:30:17.137Z,83.39
2022-11-08T15:33:34.541Z,83.61
2022-11-08T15:36:36.929Z,84.47
2022-11-08T15:39:39.905Z,85.52
2022-11-08T15:42:45.024Z,86.94
2022-11-08T15:45:52.772Z,85.91
2022-11-08T15:48:59.202Z,86.86
2022-11-08T15:52:00.789Z,87.67
2022-11-08T15:55:02.181Z,87.08
2022-11-08T15:58:04.623Z,87.55
2022-11-08T16:01:06.647Z,88.57
2022-11-08T16:04:12.835Z,90.00
2022-11-08T16:07:14.305Z,90.48
2022-11-08T16:10:18.350Z,91.18
2022-11-08T16:13:26.982Z,91.12
2022-11-08T16:16:32.658Z,91.88
2022-11-08T16:19:36.456Z,91.81
2022-11-08T16:22:37.918Z,92.62
2022-11-08T16:25:46.225Z,92.49
2022-11-08T16:28:47.685Z,91.30
2022-11-08T16:31:51.013Z,89.46
2022-11-08T16:34:52.412Z,87.47
2022-11-08T16:37:54.155Z,87.80
2022-11-08T16:40:56.048Z,86.14
2022-11-08T16:43:58.101Z,86.58
2022-11-08T16:46:59.589Z,86.38
2022-11-08T16:50:01.190Z,85.75
2022-11-08T16:53:02.604Z,85.46
2022-11-08T16:56:04.067Z,87.16
2022-11-08T16:59:05.447Z,86.66
2022-11-08T17:02:20.646Z,85.88
2022-11-08T17:05:24.391Z,87.43
2022-11-08T17:08:26.327Z,87.44
2022-11-08T17:11:27.742Z,87.43
2022-11-08T17:14:29.127Z,87.90
2022-11-08T17:17:30.524Z,87.64
2022-11-08T17:20:32.097Z,88.25
2022-11-08T17:23:33.544Z,88.70
2022-11-08T17:26:34.977Z,88.32
2022-11-08T17:29:36.407Z,87.87
2022-11-08T17:32:38.334Z,87.47
2022-11-08T17:35:43.875Z,87.67
2022-11-08T17:38:45.921Z,88.04
2022-11-08T17:41:47.365Z,87.43
2022-11-08T17:44:49.550Z,86.99
2022-11-08T17:47:50.944Z,86.68
2022-11-08T17:50:52.702Z,87.36
2022-11-08T17:53:54.096Z,87.38
2022-11-08T17:56:55.543Z,87.99
2022-11-08T17:59:57.109Z,87.31
2022-11-08T18:02:58.981Z,88.23
2022-11-08T18:06:11.263Z,87.99
2022-11-08T18:09:12.831Z,89.02
2022-11-08T18:12:14.338Z,89.46
2022-11-08T18:15:15.743Z,89.69
2022-11-08T18:18:17.862Z,88.99
2022-11-08T18:21:19.931Z,89.70
2022-11-08T18:24:21.371Z,90.74
2022-11-08T18:27:22.826Z,91.29
2022-11-08T18:30:24.332Z,91.16
2022-11-08T18:33:25.854Z,90.97
2022-11-08T18:36:29.484Z,90.88
2022-11-08T18:39:30.916Z,90.17
2022-11-08T18:42:32.790Z,90.17
2022-11-08T18:45:34.201Z,89.17
2022-11-08T18:48:35.825Z,89.99
2022-11-08T18:51:37.263Z,89.91
2022-11-08T18:54:38.662Z,89.82
2022-11-08T18:57:40.913Z,89.68
2022-11-08T19:00:42.808Z,90.14
2022-11-08T19:03:44.265Z,90.17
2022-11-08T19:06:50.068Z,90.37
2022-11-08T19:09:54.598Z,90.44
2022-11-08T19:12:55.984Z,90.30
2022-11-08T19:16:10.010Z,90.16
2022-11-08T19:19:11.885Z,89.33
2022-11-08T19:22:13.263Z,89.21
2022-11-08T19:25:14.739Z,89.50
2022-11-08T19:28:16.221Z,89.47
2022-11-08T19:31:19.553Z,89.00
2022-11-08T19:34:20.959Z,89.11
2022-11-08T19:37:22.365Z,89.01
2022-11-08T19:40:26.758Z,88.18
2022-11-08T19:43:40.197Z,88.48
2022-11-08T19:46:41.701Z,89.00
2022-11-08T19:49:43.187Z,89.08
2022-11-08T19:52:44.581Z,89.39
2022-11-08T19:55:46.043Z,89.22
2022-11-08T19:58:47.516Z,88.24
2022-11-08T20:01:49.112Z,87.81
2022-11-08T20:04:50.685Z,88.69
2022-11-08T20:07:52.266Z,89.04
2022-11-08T20:10:53.752Z,89.26
2022-11-08T20:13:56.093Z,89.62
2022-11-08T20:16:57.511Z,89.34
2022-11-08T20:19:58.909Z,89.77
2022-11-08T20:23:00.439Z,89.95
2022-11-08T20:26:04.258Z,90.10
2022-11-08T20:29:09.555Z,90.97
2022-11-08T20:32:11.460Z,90.50
2022-11-08T20:35:19.234Z,90.12
2022-11-08T20:38:24.772Z,89.34
2022-11-08T20:41:26.200Z,89.34
2022-11-08T20:44:27.593Z,89.85
2022-11-08T20:47:29.978Z,89.15
2022-11-08T20:50:31.367Z,90.07
2022-11-08T20:53:34.944Z,90.92
2022-11-08T20:56:36.616Z,90.99
2022-11-08T20:59:38.040Z,91.59
2022-11-08T21:02:39.450Z,91.93
2022-11-08T21:05:40.917Z,92.17
2022-11-08T21:12:04.059Z,91.95
2022-11-08T21:15:05.912Z,92.97
2022-11-08T21:18:07.955Z,91.86
2022-11-08T21:21:15.176Z,92.25
2022-11-08T21:24:17.109Z,92.56
2022-11-08T21:27:18.672Z,92.16
2022-11-08T21:30:20.173Z,92.00
2022-11-08T21:33:22.483Z,91.94
2022-11-08T21:36:26.631Z,94.28
2022-11-08T21:39:28.125Z,98.92
2022-11-08T21:42:29.586Z,100.00
2022-11-08T21:45:31.093Z,100.00
2022-11-08T21:48:32.485Z,100.00
2022-11-08T21:51:33.892Z,100.00
2022-11-08T21:54:35.397Z,100.00
2022-11-08T21:57:36.861Z,100.00
2022-11-08T22:00:38.281Z,100.00
2022-11-08T22:03:39.754Z,100.00
2022-11-08T22:06:45.023Z,100.00
2022-11-08T22:09:48.932Z,100.00
2022-11-08T22:12:50.314Z,100.00
2022-11-08T22:15:51.719Z,100.00
2022-11-08T22:19:09.012Z,100.00
2022-11-08T22:22:11.188Z,100.00
2022-11-08T22:25:12.577Z,100.00
2022-11-08T22:28:13.957Z,100.00
2022-11-08T22:31:15.412Z,100.00
2022-11-08T22:34:16.831Z,100.00
2022-11-08T22:37:18.229Z,100.00
2022-11-08T22:40:19.734Z,100.00
2022-11-08T22:43:21.122Z,100.00
2022-11-08T22:46:22.624Z,100.00
2022-11-08T22:49:24.002Z,100.00
2022-11-08T22:52:25.392Z,100.00
2022-11-08T22:55:26.962Z,100.00
2022-11-08T22:58:29.511Z,100.00
2022-11-08T23:01:30.933Z,100.00
2022-11-08T23:04:32.322Z,100.00
2022-11-08T23:07:33.783Z,100.00
2022-11-08T23:10:58.094Z,100.00
2022-11-08T23:14:18.209Z,100.00
2022-11-08T23:17:19.588Z,100.00
2022-11-08T23:20:39.520Z,100.00
2022-11-08T23:23:59.364Z,100.00
2022-11-08T23:27:20.895Z,100.00
2022-11-08T23:30:41.624Z,100.00
2022-11-08T23:33:44.006Z,100.00
2022-11-08T23:36:45.397Z,100.00
2022-11-08T23:40:05.383Z,100.00
2022-11-08T23:43:36.439Z,100.00
2022-11-08T23:46:37.865Z,100.00
2022-11-08T23:49:39.243Z,100.00
2022-11-08T23:52:40.640Z,100.00
2022-11-08T23:55:42.067Z,100.00
2022-11-08T23:58:43.458Z,100.00
